Anchorage, Alaska
Current Conditions -  °F | °C
As of 11:53 AM on Friday 28 Nov 2014 (Local Time) from PANC Reporting Station
Overcast Overcast  
Wind Chill: 17°   Ceiling: 5500
Heat Index: 23°   Visibility: 10mi
Dew Point: 17°   Wind: 5mph
Humidity: 78%   Direction: 360°N
Pressure: 30.19"   Gusts: NA
Location:  61.16°N, 150.01°W
Report Text: PANC 282053Z 36004KT 10SM FEW003 SCT042 OVC055 M05/M08 A3019 RMK AO2 SLP228 T10501083 51005
Loading
Personal Weather Stations






























Interactive Weather Map New forecast layout! Learn more

10-Day Weather Forecast

Advertisements
Track Severe Weather on mobile